createdAt,value
2019-03-29T00:01:13.411Z,6.50
2019-03-29T00:03:39.657Z,7.27
2019-03-29T00:06:05.945Z,8.20
2019-03-29T00:08:32.159Z,7.83
2019-03-29T00:10:58.475Z,7.57
2019-03-29T00:13:24.716Z,7.13
2019-03-29T00:15:51.484Z,6.30
2019-03-29T00:18:17.826Z,7.33
2019-03-29T00:20:44.074Z,7.87
2019-03-29T00:23:10.420Z,8.03
2019-03-29T00:25:36.658Z,7.77
2019-03-29T00:28:02.891Z,7.30
2019-03-29T00:30:29.456Z,8.40
2019-03-29T00:32:55.920Z,8.20
2019-03-29T00:35:22.197Z,8.30
2019-03-29T00:37:53.705Z,7.77
2019-03-29T00:40:16.573Z,8.53
2019-03-29T00:42:43.090Z,7.83
2019-03-29T00:45:09.944Z,8.90
2019-03-29T00:47:36.156Z,7.80
2019-03-29T00:50:04.937Z,9.43
2019-03-29T00:52:31.171Z,9.80
2019-03-29T00:54:57.426Z,8.80
2019-03-29T00:57:23.708Z,10.63
2019-03-29T00:59:49.929Z,9.57
2019-03-29T01:02:16.190Z,9.10
2019-03-29T01:04:42.407Z,10.70
2019-03-29T01:07:08.770Z,8.60
2019-03-29T01:09:34.977Z,10.20
2019-03-29T01:12:03.118Z,10.17
2019-03-29T01:14:29.353Z,10.80
2019-03-29T01:16:55.610Z,10.63
2019-03-29T01:19:21.821Z,11.27
2019-03-29T01:21:48.100Z,12.33
2019-03-29T01:24:14.361Z,11.43
2019-03-29T01:26:40.581Z,12.17
2019-03-29T01:29:06.805Z,12.23
2019-03-29T01:31:33.032Z,12.63
2019-03-29T01:33:59.259Z,12.27
2019-03-29T01:36:25.537Z,11.90
2019-03-29T01:38:51.784Z,13.50
2019-03-29T01:41:18.024Z,13.27
2019-03-29T01:43:44.265Z,12.90
2019-03-29T01:46:11.300Z,13.23
2019-03-29T01:48:38.141Z,12.97
2019-03-29T01:51:04.490Z,12.47
2019-03-29T01:53:30.707Z,12.60
2019-03-29T01:55:56.983Z,13.03
2019-03-29T01:58:23.234Z,13.53
2019-03-29T02:00:49.565Z,14.20
2019-03-29T02:03:15.817Z,12.83
2019-03-29T02:05:42.031Z,14.03
2019-03-29T02:08:08.275Z,15.70
2019-03-29T02:10:34.610Z,14.77
2019-03-29T02:13:00.852Z,14.60
2019-03-29T02:15:27.107Z,14.17
2019-03-29T02:17:53.345Z,15.20
2019-03-29T02:20:19.632Z,14.47
2019-03-29T02:22:45.894Z,15.40
2019-03-29T02:25:12.540Z,14.90
2019-03-29T02:27:38.762Z,14.80
2019-03-29T02:30:06.432Z,14.37
2019-03-29T02:32:32.658Z,13.97
2019-03-29T02:34:58.931Z,15.70
2019-03-29T02:37:25.179Z,14.30
2019-03-29T02:39:51.404Z,13.37
2019-03-29T02:42:17.641Z,13.93
2019-03-29T02:44:43.883Z,14.20
2019-03-29T02:47:10.173Z,13.73
2019-03-29T02:49:36.440Z,12.90
2019-03-29T02:52:02.867Z,12.80
2019-03-29T02:54:29.347Z,14.23
2019-03-29T02:56:55.588Z,12.90
2019-03-29T02:59:21.844Z,13.13
2019-03-29T03:01:48.060Z,14.33
2019-03-29T03:04:14.357Z,14.40
2019-03-29T03:06:40.624Z,13.00
2019-03-29T03:09:14.171Z,15.67
2019-03-29T03:11:34.975Z,14.37
2019-03-29T03:14:01.333Z,15.43
2019-03-29T03:16:27.590Z,15.33
2019-03-29T03:18:53.818Z,14.63
2019-03-29T03:21:20.045Z,13.37
2019-03-29T03:23:46.409Z,13.90
2019-03-29T03:26:12.654Z,14.53
2019-03-29T03:28:38.879Z,14.63
2019-03-29T03:31:05.132Z,14.70
2019-03-29T03:33:31.378Z,13.50
2019-03-29T03:35:57.608Z,15.60
2019-03-29T03:38:23.848Z,14.40
2019-03-29T03:40:50.254Z,14.07
2019-03-29T03:43:16.481Z,14.73
2019-03-29T03:45:42.701Z,15.40
2019-03-29T03:48:08.936Z,14.90
2019-03-29T03:50:40.978Z,15.40
2019-03-29T03:53:08.792Z,14.70
2019-03-29T03:55:36.829Z,15.17
2019-03-29T03:58:03.287Z,15.20
2019-03-29T04:00:50.097Z,14.47
2019-03-29T04:03:16.325Z,16.53
2019-03-29T04:05:42.572Z,16.50
2019-03-29T04:08:09.227Z,15.97
2019-03-29T04:10:35.446Z,19.73
2019-03-29T04:13:01.986Z,19.10
2019-03-29T04:15:28.237Z,19.20
2019-03-29T04:17:54.464Z,19.17
2019-03-29T04:20:20.716Z,18.60
2019-03-29T04:22:46.948Z,19.13
2019-03-29T04:25:13.185Z,18.50
2019-03-29T04:27:39.421Z,20.00
2019-03-29T04:30:05.954Z,17.50
2019-03-29T04:32:32.184Z,18.27
2019-03-29T04:34:58.424Z,17.97
2019-03-29T04:37:24.637Z,18.13
2019-03-29T04:40:06.381Z,18.17
2019-03-29T04:42:19.028Z,16.40
2019-03-29T04:44:45.260Z,15.97
2019-03-29T04:47:11.492Z,15.40
2019-03-29T04:49:37.790Z,14.17
2019-03-29T04:52:04.195Z,16.60
2019-03-29T04:54:30.461Z,17.40
2019-03-29T04:56:56.682Z,14.40
2019-03-29T04:59:22.908Z,16.07
2019-03-29T05:01:49.160Z,16.23
2019-03-29T05:04:15.370Z,15.60
2019-03-29T05:06:41.639Z,15.97
2019-03-29T05:09:07.856Z,15.47
2019-03-29T05:11:34.097Z,14.73
2019-03-29T05:14:00.313Z,14.37
2019-03-29T05:16:26.558Z,16.87
2019-03-29T05:18:52.785Z,15.43
2019-03-29T05:21:19.001Z,18.00
2019-03-29T05:23:45.338Z,15.60
2019-03-29T05:26:11.625Z,15.77
2019-03-29T05:28:37.837Z,14.37
2019-03-29T05:31:04.082Z,16.80
2019-03-29T05:33:30.327Z,13.60
2019-03-29T05:35:56.550Z,13.87
2019-03-29T05:38:22.777Z,14.90
2019-03-29T05:40:49.043Z,18.80
2019-03-29T05:43:15.602Z,16.03
2019-03-29T05:45:41.820Z,19.03
2019-03-29T05:48:08.043Z,16.20
2019-03-29T05:50:36.807Z,17.10
2019-03-29T05:53:02.422Z,16.97
2019-03-29T05:55:32.790Z,18.50
2019-03-29T05:57:56.911Z,18.23
2019-03-29T06:00:23.476Z,19.57
2019-03-29T06:02:49.704Z,18.10
2019-03-29T06:05:15.928Z,17.87
2019-03-29T06:07:42.163Z,19.80
2019-03-29T06:10:08.777Z,16.53
2019-03-29T06:12:35.011Z,15.90
2019-03-29T06:15:01.355Z,18.00
2019-03-29T06:17:27.832Z,18.67
2019-03-29T06:19:54.365Z,19.87
2019-03-29T06:22:20.597Z,18.53
2019-03-29T06:24:46.875Z,17.43
2019-03-29T06:27:13.098Z,16.40
2019-03-29T06:29:39.325Z,15.00
2019-03-29T06:32:05.881Z,15.37
2019-03-29T06:34:32.219Z,14.40
2019-03-29T06:36:59.634Z,14.10
2019-03-29T06:39:26.215Z,15.93
2019-03-29T06:41:52.433Z,15.10
2019-03-29T06:44:18.661Z,15.40
2019-03-29T06:46:44.890Z,16.43
2019-03-29T06:49:11.184Z,14.90
2019-03-29T06:51:37.426Z,14.20
2019-03-29T06:54:03.659Z,15.90
2019-03-29T06:56:29.989Z,16.10
2019-03-29T06:58:56.202Z,18.17
2019-03-29T07:01:22.443Z,16.90
2019-03-29T07:03:48.696Z,16.27
2019-03-29T07:06:14.980Z,17.83
2019-03-29T07:08:42.724Z,18.70
2019-03-29T07:11:17.091Z,17.77
2019-03-29T07:13:38.456Z,18.40
2019-03-29T07:16:04.679Z,19.60
2019-03-29T07:18:32.591Z,18.80
2019-03-29T07:20:58.854Z,18.80
2019-03-29T07:23:25.090Z,19.97
2019-03-29T07:25:51.332Z,18.67
2019-03-29T07:28:17.869Z,19.07
2019-03-29T07:30:44.082Z,19.77
2019-03-29T07:33:10.312Z,20.33
2019-03-29T07:35:36.537Z,18.97
2019-03-29T07:38:02.782Z,18.13
2019-03-29T07:40:29.094Z,20.33
2019-03-29T07:42:55.389Z,21.73
2019-03-29T07:45:23.846Z,20.30
2019-03-29T07:47:50.107Z,19.73
2019-03-29T07:50:18.985Z,20.00
2019-03-29T07:52:44.511Z,18.80
2019-03-29T07:55:10.751Z,20.30
2019-03-29T07:57:37.024Z,19.60
2019-03-29T08:00:06.041Z,21.03
2019-03-29T08:02:34.916Z,19.60
2019-03-29T08:05:00.600Z,18.70
2019-03-29T08:07:28.100Z,17.97
2019-03-29T08:09:54.975Z,17.03
2019-03-29T08:12:22.034Z,18.70
2019-03-29T08:14:48.455Z,19.87
2019-03-29T08:17:14.672Z,19.70
2019-03-29T08:19:41.157Z,17.23
2019-03-29T08:22:07.388Z,15.90
2019-03-29T08:24:33.709Z,17.17
2019-03-29T08:26:59.938Z,17.60
2019-03-29T08:29:26.159Z,17.03
2019-03-29T08:31:55.328Z,14.97
2019-03-29T08:34:20.618Z,15.80
2019-03-29T08:36:46.868Z,15.47
2019-03-29T08:39:26.975Z,15.00
2019-03-29T08:41:41.357Z,14.10
2019-03-29T08:44:07.675Z,14.10
2019-03-29T08:46:33.922Z,14.20
2019-03-29T08:49:00.223Z,13.70
2019-03-29T08:51:26.420Z,14.13
2019-03-29T08:53:52.669Z,13.40
2019-03-29T08:56:18.918Z,13.00
2019-03-29T08:58:46.652Z,13.60
2019-03-29T09:01:12.995Z,13.77
2019-03-29T09:03:39.525Z,13.17
2019-03-29T09:06:06.085Z,12.63
2019-03-29T09:08:32.355Z,14.17
2019-03-29T09:10:58.589Z,13.00
2019-03-29T09:13:24.810Z,12.60
2019-03-29T09:15:51.111Z,14.07
2019-03-29T09:18:17.349Z,13.10
2019-03-29T09:20:43.602Z,14.20
2019-03-29T09:23:10.606Z,12.93
2019-03-29T09:25:40.164Z,13.47
2019-03-29T09:28:05.268Z,13.57
2019-03-29T09:30:31.507Z,12.40
2019-03-29T09:32:57.935Z,13.60
2019-03-29T09:35:24.217Z,13.37
2019-03-29T09:37:50.435Z,13.00
2019-03-29T09:40:16.996Z,12.73
2019-03-29T09:42:43.893Z,11.00
2019-03-29T09:45:10.268Z,11.83
2019-03-29T09:47:40.377Z,10.70
2019-03-29T09:50:10.081Z,10.70
2019-03-29T09:52:35.704Z,10.67
2019-03-29T09:55:02.884Z,11.80
2019-03-29T09:57:37.111Z,11.00
2019-03-29T09:59:57.273Z,10.43
2019-03-29T10:02:23.704Z,9.57
2019-03-29T10:04:49.933Z,9.13
2019-03-29T10:07:16.410Z,10.00
2019-03-29T10:09:42.643Z,9.70
2019-03-29T10:12:09.080Z,8.73
2019-03-29T10:14:35.348Z,9.13
2019-03-29T10:17:01.566Z,9.20
2019-03-29T10:19:27.784Z,9.40
2019-03-29T10:21:54.033Z,9.83
2019-03-29T10:24:20.286Z,9.90
2019-03-29T10:26:46.760Z,9.13
2019-03-29T10:29:13.023Z,9.37
2019-03-29T10:31:39.286Z,9.23
2019-03-29T10:34:05.535Z,10.57
2019-03-29T10:36:32.019Z,10.33
2019-03-29T10:38:58.348Z,10.03
2019-03-29T10:41:24.615Z,10.03
2019-03-29T10:43:50.934Z,13.30
2019-03-29T10:46:17.169Z,11.03
2019-03-29T10:48:43.434Z,10.20
2019-03-29T10:51:09.695Z,11.30
2019-03-29T10:53:35.914Z,10.80
2019-03-29T10:56:02.341Z,10.30
2019-03-29T10:58:28.574Z,10.40
2019-03-29T11:00:54.789Z,9.67
2019-03-29T11:03:21.169Z,10.10
2019-03-29T11:05:47.476Z,9.70
2019-03-29T11:08:13.796Z,10.40
2019-03-29T11:10:40.323Z,9.50
2019-03-29T11:13:13.192Z,8.97
2019-03-29T11:15:35.236Z,10.47
2019-03-29T11:18:01.849Z,8.10
2019-03-29T11:20:28.206Z,9.20
2019-03-29T11:22:54.467Z,10.43
2019-03-29T11:25:20.785Z,10.73
2019-03-29T11:27:47.020Z,11.43
2019-03-29T11:30:13.346Z,8.90
2019-03-29T11:32:39.864Z,9.20
2019-03-29T11:35:06.206Z,9.87
2019-03-29T11:37:32.435Z,8.93
2019-03-29T11:39:58.689Z,9.20
2019-03-29T11:42:25.004Z,9.80
2019-03-29T11:44:51.231Z,9.93
2019-03-29T11:47:17.476Z,9.57
2019-03-29T11:49:43.696Z,10.97
2019-03-29T11:52:09.950Z,11.70
2019-03-29T11:54:36.184Z,9.77
2019-03-29T11:57:02.526Z,11.10
2019-03-29T11:59:28.861Z,10.90
2019-03-29T12:01:55.793Z,10.13
2019-03-29T12:04:22.031Z,10.70
2019-03-29T12:06:48.260Z,9.00
2019-03-29T12:09:14.493Z,9.97
2019-03-29T12:11:40.720Z,10.97
2019-03-29T12:14:07.180Z,10.60
2019-03-29T12:16:33.501Z,9.80
2019-03-29T12:18:59.734Z,10.87
2019-03-29T12:21:25.980Z,10.13
2019-03-29T12:23:52.216Z,10.00
2019-03-29T12:26:18.448Z,11.17
2019-03-29T12:28:44.669Z,10.33
2019-03-29T12:31:12.163Z,10.20
2019-03-29T12:33:38.391Z,9.77
2019-03-29T12:36:04.710Z,9.43
2019-03-29T12:38:31.040Z,9.07
2019-03-29T12:40:57.277Z,9.90
2019-03-29T12:43:23.496Z,8.33
2019-03-29T12:45:49.725Z,10.10
2019-03-29T12:48:15.975Z,9.60
2019-03-29T12:50:42.294Z,9.47
2019-03-29T12:53:08.530Z,7.50
2019-03-29T12:55:34.774Z,9.67
2019-03-29T12:58:00.989Z,9.50
2019-03-29T13:00:27.219Z,9.57
2019-03-29T13:02:53.451Z,9.00
2019-03-29T13:05:19.715Z,9.57
2019-03-29T13:07:45.960Z,9.10
2019-03-29T13:10:13.270Z,10.53
2019-03-29T13:12:39.501Z,9.67
2019-03-29T13:15:06.616Z,9.77
2019-03-29T13:17:32.844Z,10.27
2019-03-29T13:19:59.114Z,10.03
2019-03-29T13:22:25.517Z,9.27
2019-03-29T13:24:51.847Z,9.20
2019-03-29T13:27:18.072Z,9.07
2019-03-29T13:29:44.303Z,9.00
2019-03-29T13:32:10.523Z,9.23
2019-03-29T13:34:36.734Z,9.10
2019-03-29T13:37:02.982Z,8.97
2019-03-29T13:39:29.241Z,10.63
2019-03-29T13:41:55.455Z,9.10
2019-03-29T13:44:24.501Z,8.80
2019-03-29T13:46:49.794Z,10.40
2019-03-29T13:49:16.126Z,11.10
2019-03-29T13:51:42.435Z,10.20
2019-03-29T13:54:08.680Z,10.87
2019-03-29T13:56:35.056Z,10.40
2019-03-29T13:59:01.285Z,9.70
2019-03-29T14:01:27.534Z,11.07
2019-03-29T14:03:53.751Z,10.10
2019-03-29T14:06:19.978Z,11.10
2019-03-29T14:08:46.228Z,9.03
2019-03-29T14:11:13.271Z,9.63
2019-03-29T14:13:39.533Z,9.70
2019-03-29T14:16:05.764Z,10.13
2019-03-29T14:18:31.987Z,9.40
2019-03-29T14:20:58.216Z,10.47
2019-03-29T14:23:24.426Z,10.20
2019-03-29T14:25:50.691Z,11.20
2019-03-29T14:28:16.894Z,10.67
2019-03-29T14:30:43.167Z,12.80
2019-03-29T14:33:09.419Z,11.10
2019-03-29T14:35:35.640Z,10.20
2019-03-29T14:38:02.070Z,9.80
2019-03-29T14:40:28.644Z,9.13
2019-03-29T14:42:54.868Z,10.50
2019-03-29T14:45:21.085Z,10.30
2019-03-29T14:47:47.333Z,10.50
2019-03-29T14:50:13.768Z,11.40
2019-03-29T14:52:40.010Z,12.10
2019-03-29T14:55:06.546Z,13.13
2019-03-29T14:57:32.772Z,11.93
2019-03-29T14:59:58.987Z,11.77
2019-03-29T15:02:25.219Z,12.77
2019-03-29T15:04:51.455Z,12.37
2019-03-29T15:07:18.277Z,11.33
2019-03-29T15:09:45.209Z,12.00
2019-03-29T15:12:11.450Z,12.33
2019-03-29T15:14:37.668Z,11.40
2019-03-29T15:17:03.884Z,12.23
2019-03-29T15:19:30.141Z,13.43
2019-03-29T15:21:56.411Z,11.53
2019-03-29T15:24:22.645Z,11.70
2019-03-29T15:26:48.894Z,11.60
2019-03-29T15:29:15.116Z,11.10
2019-03-29T15:31:41.345Z,11.90
2019-03-29T15:34:07.558Z,11.53
2019-03-29T15:36:33.793Z,10.93
2019-03-29T15:39:00.039Z,11.73
2019-03-29T15:41:26.315Z,11.60
2019-03-29T15:43:52.534Z,13.03
2019-03-29T15:46:18.770Z,12.50
2019-03-29T15:48:44.986Z,11.67
2019-03-29T15:51:11.507Z,11.50
2019-03-29T15:53:37.841Z,10.60
2019-03-29T15:56:04.213Z,10.60
2019-03-29T15:58:30.444Z,11.97
2019-03-29T16:00:56.687Z,11.67
2019-03-29T16:03:22.887Z,11.70
2019-03-29T16:05:49.139Z,12.23
2019-03-29T16:08:15.545Z,10.73
2019-03-29T16:10:41.778Z,10.00
2019-03-29T16:13:08.027Z,9.17
2019-03-29T16:15:38.194Z,10.47
2019-03-29T16:18:02.488Z,10.37
2019-03-29T16:20:28.860Z,11.57
2019-03-29T16:22:55.080Z,11.50
2019-03-29T16:25:21.311Z,13.20
2019-03-29T16:27:48.052Z,10.80
2019-03-29T16:30:14.611Z,11.30
2019-03-29T16:32:40.842Z,11.10
2019-03-29T16:35:07.218Z,11.60
2019-03-29T16:37:35.406Z,11.30
2019-03-29T16:40:04.911Z,12.57
2019-03-29T16:42:31.171Z,11.13
2019-03-29T16:44:57.393Z,11.10
2019-03-29T16:47:23.642Z,12.07
2019-03-29T16:49:50.037Z,11.40
2019-03-29T16:52:16.273Z,11.33
2019-03-29T16:54:42.520Z,11.80
2019-03-29T16:57:08.988Z,12.60
2019-03-29T16:59:35.349Z,11.07
2019-03-29T17:02:01.586Z,11.93
2019-03-29T17:04:28.085Z,10.77
2019-03-29T17:06:54.408Z,11.33
2019-03-29T17:09:20.635Z,11.07
2019-03-29T17:11:46.887Z,12.60
2019-03-29T17:14:13.149Z,11.27
2019-03-29T17:16:39.364Z,10.63
2019-03-29T17:19:05.581Z,12.50
2019-03-29T17:21:32.846Z,14.03
2019-03-29T17:23:59.766Z,13.67
2019-03-29T17:26:25.991Z,12.10
2019-03-29T17:28:52.229Z,12.90
2019-03-29T17:31:18.746Z,12.10
2019-03-29T17:33:44.988Z,14.20
2019-03-29T17:36:11.446Z,12.77
2019-03-29T17:38:37.693Z,14.43
2019-03-29T17:41:04.022Z,13.40
2019-03-29T17:43:30.290Z,12.17
2019-03-29T17:45:56.529Z,13.43
2019-03-29T17:48:22.747Z,13.70
2019-03-29T17:50:49.049Z,14.23
2019-03-29T17:53:15.310Z,12.43
2019-03-29T17:55:41.559Z,14.03
2019-03-29T17:58:07.827Z,14.00
2019-03-29T18:00:34.063Z,12.97
2019-03-29T18:03:00.303Z,13.73
2019-03-29T18:05:26.536Z,13.70
2019-03-29T18:07:52.766Z,15.00
2019-03-29T18:10:18.981Z,15.10
2019-03-29T18:12:45.529Z,13.33
2019-03-29T18:15:12.754Z,13.60
2019-03-29T18:17:38.978Z,13.17
2019-03-29T18:20:06.611Z,15.20
2019-03-29T18:22:32.830Z,14.80
2019-03-29T18:24:59.312Z,14.40
2019-03-29T18:27:25.534Z,14.40
2019-03-29T18:29:51.826Z,14.37
2019-03-29T18:32:18.181Z,13.93
2019-03-29T18:34:44.387Z,15.27
2019-03-29T18:37:12.024Z,14.93
2019-03-29T18:39:38.354Z,13.90
2019-03-29T18:42:04.570Z,16.20
2019-03-29T18:44:31.035Z,14.87
2019-03-29T18:46:57.394Z,14.30
2019-03-29T18:49:23.623Z,14.60
2019-03-29T18:51:49.905Z,14.13
2019-03-29T18:54:16.127Z,14.60
2019-03-29T18:56:42.346Z,15.30
2019-03-29T18:59:08.612Z,15.57
2019-03-29T19:01:34.952Z,14.97
2019-03-29T19:04:01.247Z,15.70
2019-03-29T19:06:27.469Z,15.77
2019-03-29T19:08:53.689Z,17.07
2019-03-29T19:11:20.048Z,14.50
2019-03-29T19:13:46.264Z,15.00
2019-03-29T19:16:12.479Z,15.60
2019-03-29T19:18:38.753Z,14.77
2019-03-29T19:21:05.003Z,17.87
2019-03-29T19:23:31.246Z,17.17
2019-03-29T19:25:57.480Z,18.13
2019-03-29T19:28:23.716Z,16.20
2019-03-29T19:30:49.948Z,16.33
2019-03-29T19:33:16.176Z,18.17
2019-03-29T19:35:42.431Z,17.73
2019-03-29T19:38:08.712Z,16.03
2019-03-29T19:40:34.924Z,16.03
2019-03-29T19:43:01.169Z,15.80
2019-03-29T19:45:27.405Z,15.13
2019-03-29T19:47:53.624Z,18.23
2019-03-29T19:50:20.315Z,15.33
2019-03-29T19:52:47.194Z,15.97
2019-03-29T19:55:13.925Z,17.43
2019-03-29T19:57:40.617Z,17.73
2019-03-29T20:00:11.013Z,17.00
2019-03-29T20:02:37.277Z,16.13
2019-03-29T20:05:06.705Z,17.90
2019-03-29T20:07:33.527Z,16.30
2019-03-29T20:09:59.979Z,15.20
2019-03-29T20:12:26.435Z,17.20
2019-03-29T20:14:52.899Z,17.30
2019-03-29T20:17:27.340Z,17.47
2019-03-29T20:19:48.203Z,18.63
2019-03-29T20:22:16.181Z,17.87
2019-03-29T20:24:43.295Z,19.00
2019-03-29T20:27:09.862Z,16.07
2019-03-29T20:29:36.145Z,16.80
2019-03-29T20:32:02.491Z,15.80
2019-03-29T20:34:29.328Z,16.77
2019-03-29T20:36:55.572Z,17.20
2019-03-29T20:39:21.881Z,19.53
2019-03-29T20:41:48.161Z,18.90
2019-03-29T20:44:14.394Z,18.80
2019-03-29T20:46:40.698Z,20.30
2019-03-29T20:49:06.924Z,18.30
2019-03-29T20:51:33.274Z,19.50
2019-03-29T20:53:59.651Z,19.40
2019-03-29T20:56:28.755Z,18.53
2019-03-29T20:58:54.052Z,19.80
2019-03-29T21:01:20.450Z,20.33
2019-03-29T21:03:47.144Z,19.93
2019-03-29T21:06:13.518Z,19.90
2019-03-29T21:08:39.777Z,19.83
2019-03-29T21:11:06.014Z,20.27
2019-03-29T21:13:32.262Z,20.97
2019-03-29T21:15:58.465Z,20.50
2019-03-29T21:18:24.706Z,18.97
2019-03-29T21:20:50.981Z,19.50
2019-03-29T21:23:17.209Z,19.00
2019-03-29T21:25:43.441Z,20.43
2019-03-29T21:28:09.678Z,20.50
2019-03-29T21:30:35.919Z,20.70
2019-03-29T21:33:02.144Z,19.90
2019-03-29T21:35:28.510Z,21.27
2019-03-29T21:37:54.785Z,21.77
2019-03-29T21:40:21.014Z,21.53
2019-03-29T21:42:47.396Z,19.80
2019-03-29T21:45:27.701Z,21.50
2019-03-29T21:47:42.178Z,22.53
2019-03-29T21:50:08.818Z,23.03
2019-03-29T21:52:35.270Z,19.50
2019-03-29T21:55:01.651Z,21.93
2019-03-29T21:57:27.878Z,22.00
2019-03-29T21:59:54.123Z,22.30
2019-03-29T22:02:21.658Z,22.60
2019-03-29T22:04:48.365Z,21.03
2019-03-29T22:07:14.583Z,20.70
2019-03-29T22:09:40.821Z,20.30
2019-03-29T22:12:07.074Z,21.00
2019-03-29T22:14:33.624Z,21.87
2019-03-29T22:16:59.844Z,21.60
2019-03-29T22:19:26.058Z,20.50
2019-03-29T22:21:52.455Z,20.73
2019-03-29T22:24:18.712Z,21.03
2019-03-29T22:26:44.918Z,17.87
2019-03-29T22:29:11.181Z,19.63
2019-03-29T22:31:37.420Z,20.33
2019-03-29T22:34:03.644Z,20.27
2019-03-29T22:36:29.882Z,18.93
2019-03-29T22:38:56.099Z,18.40
2019-03-29T22:41:22.327Z,18.20
2019-03-29T22:43:48.553Z,20.00
2019-03-29T22:46:14.850Z,17.53
2019-03-29T22:48:52.255Z,19.20
2019-03-29T22:51:10.496Z,16.70
2019-03-29T22:53:36.740Z,21.00
2019-03-29T22:56:03.079Z,18.73
2019-03-29T22:58:29.313Z,18.93
2019-03-29T23:00:56.141Z,20.17
2019-03-29T23:03:22.515Z,18.27
2019-03-29T23:05:48.735Z,20.30
2019-03-29T23:08:14.982Z,19.03
2019-03-29T23:10:41.212Z,16.20
2019-03-29T23:13:07.425Z,18.27
2019-03-29T23:15:33.753Z,16.20
2019-03-29T23:17:59.980Z,16.93
2019-03-29T23:20:26.506Z,14.63
2019-03-29T23:22:52.724Z,15.37
2019-03-29T23:25:18.942Z,18.67
2019-03-29T23:27:45.376Z,15.53
2019-03-29T23:30:12.288Z,16.13
2019-03-29T23:32:38.619Z,15.50
2019-03-29T23:35:06.843Z,14.67
2019-03-29T23:37:33.085Z,15.77
2019-03-29T23:39:59.289Z,15.40
2019-03-29T23:42:25.515Z,15.73
2019-03-29T23:44:51.737Z,16.27
2019-03-29T23:47:17.972Z,15.77
2019-03-29T23:49:44.182Z,16.33
2019-03-29T23:52:10.428Z,14.70
2019-03-29T23:54:36.693Z,16.80
2019-03-29T23:57:02.920Z,16.47
2019-03-29T23:59:29.248Z,17.27
